sensor_id;sensor_type;location;lat;lon;timestamp;P1;durP1;ratioP1;P2;durP2;ratioP2
29712;SDS011;16623;53.632;10.016;2023-08-17T00:02:14;4.10;;;1.50;;
29712;SDS011;16623;53.632;10.016;2023-08-17T00:04:40;5.85;;;1.90;;
29712;SDS011;16623;53.632;10.016;2023-08-17T00:07:06;11.20;;;1.95;;
29712;SDS011;16623;53.632;10.016;2023-08-17T00:09:32;4.82;;;2.05;;
29712;SDS011;16623;53.632;10.016;2023-08-17T00:11:57;7.13;;;1.80;;
29712;SDS011;16623;53.632;10.016;2023-08-17T00:14:23;7.65;;;1.55;;
29712;SDS011;16623;53.632;10.016;2023-08-17T00:16:49;8.93;;;1.70;;
29712;SDS011;16623;53.632;10.016;2023-08-17T00:19:15;4.00;;;1.60;;
29712;SDS011;16623;53.632;10.016;2023-08-17T00:21:40;10.77;;;1.50;;
29712;SDS011;16623;53.632;10.016;2023-08-17T00:24:08;5.35;;;2.22;;
29712;SDS011;16623;53.632;10.016;2023-08-17T00:26:34;7.75;;;1.85;;
29712;SDS011;16623;53.632;10.016;2023-08-17T00:28:59;8.90;;;1.90;;
29712;SDS011;16623;53.632;10.016;2023-08-17T00:31:24;7.57;;;1.70;;
29712;SDS011;16623;53.632;10.016;2023-08-17T00:33:50;12.00;;;1.80;;
29712;SDS011;16623;53.632;10.016;2023-08-17T00:36:16;5.05;;;1.98;;
29712;SDS011;16623;53.632;10.016;2023-08-17T00:38:41;3.28;;;1.60;;
29712;SDS011;16623;53.632;10.016;2023-08-17T00:41:07;5.32;;;2.17;;
29712;SDS011;16623;53.632;10.016;2023-08-17T00:43:32;9.13;;;1.83;;
29712;SDS011;16623;53.632;10.016;2023-08-17T00:45:58;5.28;;;2.30;;
29712;SDS011;16623;53.632;10.016;2023-08-17T00:48:23;17.05;;;1.70;;
29712;SDS011;16623;53.632;10.016;2023-08-17T00:50:50;3.88;;;1.63;;
29712;SDS011;16623;53.632;10.016;2023-08-17T00:53:17;6.05;;;2.78;;
29712;SDS011;16623;53.632;10.016;2023-08-17T00:55:44;4.72;;;1.83;;
29712;SDS011;16623;53.632;10.016;2023-08-17T00:58:10;7.20;;;1.85;;
29712;SDS011;16623;53.632;10.016;2023-08-17T01:00:36;7.40;;;2.15;;
29712;SDS011;16623;53.632;10.016;2023-08-17T01:03:01;9.40;;;2.20;;
29712;SDS011;16623;53.632;10.016;2023-08-17T01:05:27;3.22;;;2.10;;
29712;SDS011;16623;53.632;10.016;2023-08-17T01:07:54;7.00;;;1.88;;
29712;SDS011;16623;53.632;10.016;2023-08-17T01:10:19;7.85;;;2.13;;
29712;SDS011;16623;53.632;10.016;2023-08-17T01:15:38;4.32;;;2.15;;
29712;SDS011;16623;53.632;10.016;2023-08-17T01:20:50;7.00;;;2.15;;
29712;SDS011;16623;53.632;10.016;2023-08-17T01:23:18;6.70;;;2.15;;
29712;SDS011;16623;53.632;10.016;2023-08-17T01:25:44;5.18;;;1.65;;
29712;SDS011;16623;53.632;10.016;2023-08-17T01:28:10;5.35;;;2.03;;
29712;SDS011;16623;53.632;10.016;2023-08-17T01:30:41;6.18;;;1.90;;
29712;SDS011;16623;53.632;10.016;2023-08-17T01:33:23;6.07;;;1.88;;
29712;SDS011;16623;53.632;10.016;2023-08-17T01:35:54;4.43;;;1.58;;
29712;SDS011;16623;53.632;10.016;2023-08-17T01:38:31;7.55;;;3.35;;
29712;SDS011;16623;53.632;10.016;2023-08-17T01:40:59;6.28;;;2.42;;
29712;SDS011;16623;53.632;10.016;2023-08-17T01:43:29;6.47;;;2.13;;
29712;SDS011;16623;53.632;10.016;2023-08-17T01:45:55;6.07;;;2.17;;
29712;SDS011;16623;53.632;10.016;2023-08-17T01:48:21;8.93;;;2.20;;
29712;SDS011;16623;53.632;10.016;2023-08-17T01:51:02;5.88;;;2.42;;
29712;SDS011;16623;53.632;10.016;2023-08-17T01:53:27;5.47;;;2.67;;
29712;SDS011;16623;53.632;10.016;2023-08-17T01:55:53;4.82;;;2.00;;
29712;SDS011;16623;53.632;10.016;2023-08-17T01:58:18;8.30;;;2.13;;
29712;SDS011;16623;53.632;10.016;2023-08-17T02:00:44;12.80;;;2.20;;
29712;SDS011;16623;53.632;10.016;2023-08-17T02:03:09;8.10;;;2.55;;
29712;SDS011;16623;53.632;10.016;2023-08-17T02:05:35;9.65;;;4.30;;
29712;SDS011;16623;53.632;10.016;2023-08-17T02:08:00;6.13;;;2.45;;
29712;SDS011;16623;53.632;10.016;2023-08-17T02:10:26;5.38;;;2.05;;
29712;SDS011;16623;53.632;10.016;2023-08-17T02:12:51;6.80;;;2.05;;
29712;SDS011;16623;53.632;10.016;2023-08-17T02:15:16;7.60;;;2.30;;
29712;SDS011;16623;53.632;10.016;2023-08-17T02:17:43;4.20;;;2.25;;
29712;SDS011;16623;53.632;10.016;2023-08-17T02:20:09;4.43;;;1.80;;
29712;SDS011;16623;53.632;10.016;2023-08-17T02:22:35;10.35;;;2.03;;
29712;SDS011;16623;53.632;10.016;2023-08-17T02:25:00;7.47;;;2.60;;
29712;SDS011;16623;53.632;10.016;2023-08-17T02:27:26;4.22;;;1.92;;
29712;SDS011;16623;53.632;10.016;2023-08-17T02:29:51;11.50;;;2.00;;
29712;SDS011;16623;53.632;10.016;2023-08-17T02:32:17;6.15;;;2.30;;
29712;SDS011;16623;53.632;10.016;2023-08-17T02:34:43;4.78;;;1.90;;
29712;SDS011;16623;53.632;10.016;2023-08-17T02:37:08;4.28;;;2.13;;
29712;SDS011;16623;53.632;10.016;2023-08-17T02:39:34;10.88;;;2.00;;
29712;SDS011;16623;53.632;10.016;2023-08-17T02:41:59;5.18;;;1.70;;
29712;SDS011;16623;53.632;10.016;2023-08-17T02:44:25;4.00;;;1.70;;
29712;SDS011;16623;53.632;10.016;2023-08-17T02:46:53;5.47;;;1.70;;
29712;SDS011;16623;53.632;10.016;2023-08-17T02:49:18;11.32;;;1.95;;
29712;SDS011;16623;53.632;10.016;2023-08-17T02:51:45;4.15;;;1.85;;
29712;SDS011;16623;53.632;10.016;2023-08-17T02:54:10;3.15;;;1.58;;
29712;SDS011;16623;53.632;10.016;2023-08-17T02:56:36;6.43;;;2.05;;
29712;SDS011;16623;53.632;10.016;2023-08-17T02:59:01;22.98;;;3.65;;
29712;SDS011;16623;53.632;10.016;2023-08-17T03:01:27;3.17;;;1.52;;
29712;SDS011;16623;53.632;10.016;2023-08-17T03:03:54;3.42;;;1.52;;
29712;SDS011;16623;53.632;10.016;2023-08-17T03:06:19;5.78;;;2.22;;
29712;SDS011;16623;53.632;10.016;2023-08-17T03:08:44;7.63;;;2.42;;
29712;SDS011;16623;53.632;10.016;2023-08-17T03:11:10;4.25;;;1.60;;
29712;SDS011;16623;53.632;10.016;2023-08-17T03:13:36;4.30;;;1.88;;
29712;SDS011;16623;53.632;10.016;2023-08-17T03:16:01;7.47;;;1.80;;
29712;SDS011;16623;53.632;10.016;2023-08-17T03:18:27;5.40;;;2.05;;
29712;SDS011;16623;53.632;10.016;2023-08-17T03:20:52;4.82;;;1.63;;
29712;SDS011;16623;53.632;10.016;2023-08-17T03:23:18;7.53;;;1.63;;
29712;SDS011;16623;53.632;10.016;2023-08-17T03:25:43;4.10;;;1.73;;
29712;SDS011;16623;53.632;10.016;2023-08-17T03:28:10;6.35;;;1.80;;
29712;SDS011;16623;53.632;10.016;2023-08-17T03:30:36;3.03;;;1.58;;
29712;SDS011;16623;53.632;10.016;2023-08-17T03:33:01;6.60;;;3.15;;
29712;SDS011;16623;53.632;10.016;2023-08-17T03:35:27;5.68;;;2.08;;
29712;SDS011;16623;53.632;10.016;2023-08-17T03:37:53;4.28;;;1.98;;
29712;SDS011;16623;53.632;10.016;2023-08-17T03:40:18;6.03;;;1.90;;
29712;SDS011;16623;53.632;10.016;2023-08-17T03:42:47;8.73;;;1.92;;
29712;SDS011;16623;53.632;10.016;2023-08-17T03:45:13;8.02;;;1.88;;
29712;SDS011;16623;53.632;10.016;2023-08-17T03:47:38;9.65;;;2.22;;
29712;SDS011;16623;53.632;10.016;2023-08-17T03:50:04;5.45;;;1.70;;
29712;SDS011;16623;53.632;10.016;2023-08-17T03:52:29;4.22;;;1.70;;
29712;SDS011;16623;53.632;10.016;2023-08-17T03:54:55;4.85;;;1.80;;
29712;SDS011;16623;53.632;10.016;2023-08-17T03:57:20;3.88;;;1.75;;
29712;SDS011;16623;53.632;10.016;2023-08-17T03:59:46;4.20;;;2.00;;
29712;SDS011;16623;53.632;10.016;2023-08-17T04:02:12;3.28;;;1.55;;
29712;SDS011;16623;53.632;10.016;2023-08-17T04:04:37;9.32;;;1.88;;
29712;SDS011;16623;53.632;10.016;2023-08-17T04:07:02;5.45;;;1.98;;
29712;SDS011;16623;53.632;10.016;2023-08-17T04:09:28;5.10;;;2.17;;
29712;SDS011;16623;53.632;10.016;2023-08-17T04:11:55;9.52;;;2.28;;
29712;SDS011;16623;53.632;10.016;2023-08-17T04:14:22;7.82;;;2.00;;
29712;SDS011;16623;53.632;10.016;2023-08-17T04:16:47;3.97;;;2.20;;
29712;SDS011;16623;53.632;10.016;2023-08-17T04:19:20;6.38;;;1.95;;
29712;SDS011;16623;53.632;10.016;2023-08-17T04:21:46;4.10;;;1.85;;
29712;SDS011;16623;53.632;10.016;2023-08-17T04:24:11;2.92;;;2.00;;
29712;SDS011;16623;53.632;10.016;2023-08-17T04:26:37;5.00;;;2.25;;
29712;SDS011;16623;53.632;10.016;2023-08-17T04:29:03;10.20;;;2.35;;
29712;SDS011;16623;53.632;10.016;2023-08-17T04:31:29;10.73;;;2.20;;
29712;SDS011;16623;53.632;10.016;2023-08-17T04:33:54;9.65;;;3.13;;
29712;SDS011;16623;53.632;10.016;2023-08-17T04:36:20;10.48;;;2.67;;
29712;SDS011;16623;53.632;10.016;2023-08-17T04:38:45;7.45;;;2.22;;
29712;SDS011;16623;53.632;10.016;2023-08-17T04:41:11;3.33;;;1.90;;
29712;SDS011;16623;53.632;10.016;2023-08-17T04:43:36;8.43;;;2.05;;
29712;SDS011;16623;53.632;10.016;2023-08-17T04:46:02;4.45;;;1.60;;
29712;SDS011;16623;53.632;10.016;2023-08-17T04:48:27;4.82;;;1.95;;
29712;SDS011;16623;53.632;10.016;2023-08-17T04:50:53;5.60;;;1.90;;
29712;SDS011;16623;53.632;10.016;2023-08-17T04:53:18;9.77;;;1.90;;
29712;SDS011;16623;53.632;10.016;2023-08-17T04:55:43;7.95;;;2.38;;
29712;SDS011;16623;53.632;10.016;2023-08-17T04:58:09;3.10;;;1.98;;
29712;SDS011;16623;53.632;10.016;2023-08-17T05:00:35;11.05;;;2.58;;
29712;SDS011;16623;53.632;10.016;2023-08-17T05:03:00;10.05;;;3.13;;
29712;SDS011;16623;53.632;10.016;2023-08-17T05:05:26;9.45;;;2.50;;
29712;SDS011;16623;53.632;10.016;2023-08-17T05:07:52;7.00;;;2.50;;
29712;SDS011;16623;53.632;10.016;2023-08-17T05:10:17;12.30;;;3.08;;
29712;SDS011;16623;53.632;10.016;2023-08-17T05:12:43;16.27;;;4.13;;
29712;SDS011;16623;53.632;10.016;2023-08-17T05:15:09;12.13;;;3.38;;
29712;SDS011;16623;53.632;10.016;2023-08-17T05:17:34;9.38;;;2.58;;
29712;SDS011;16623;53.632;10.016;2023-08-17T05:20:00;11.05;;;2.88;;
29712;SDS011;16623;53.632;10.016;2023-08-17T05:22:27;10.27;;;2.90;;
29712;SDS011;16623;53.632;10.016;2023-08-17T05:24:56;7.97;;;3.05;;
29712;SDS011;16623;53.632;10.016;2023-08-17T05:27:22;8.88;;;2.78;;
29712;SDS011;16623;53.632;10.016;2023-08-17T05:29:47;7.90;;;3.40;;
29712;SDS011;16623;53.632;10.016;2023-08-17T05:32:13;6.72;;;4.07;;
29712;SDS011;16623;53.632;10.016;2023-08-17T05:34:38;11.80;;;3.15;;
29712;SDS011;16623;53.632;10.016;2023-08-17T05:37:03;9.02;;;3.15;;
29712;SDS011;16623;53.632;10.016;2023-08-17T05:39:29;7.78;;;3.08;;
29712;SDS011;16623;53.632;10.016;2023-08-17T05:41:54;12.98;;;3.63;;
29712;SDS011;16623;53.632;10.016;2023-08-17T05:44:20;7.53;;;2.88;;
29712;SDS011;16623;53.632;10.016;2023-08-17T05:46:46;6.47;;;3.13;;
29712;SDS011;16623;53.632;10.016;2023-08-17T05:49:12;10.35;;;3.17;;
29712;SDS011;16623;53.632;10.016;2023-08-17T05:51:37;8.35;;;3.33;;
29712;SDS011;16623;53.632;10.016;2023-08-17T05:54:06;7.15;;;3.70;;
29712;SDS011;16623;53.632;10.016;2023-08-17T05:56:32;12.90;;;4.43;;
29712;SDS011;16623;53.632;10.016;2023-08-17T05:58:57;8.57;;;3.95;;
29712;SDS011;16623;53.632;10.016;2023-08-17T06:01:23;7.97;;;3.55;;
29712;SDS011;16623;53.632;10.016;2023-08-17T06:03:48;6.25;;;3.30;;
29712;SDS011;16623;53.632;10.016;2023-08-17T06:06:14;9.82;;;3.22;;
29712;SDS011;16623;53.632;10.016;2023-08-17T06:08:40;10.15;;;4.00;;
29712;SDS011;16623;53.632;10.016;2023-08-17T06:11:05;11.45;;;3.58;;
29712;SDS011;16623;53.632;10.016;2023-08-17T06:13:31;12.60;;;4.20;;
29712;SDS011;16623;53.632;10.016;2023-08-17T06:15:56;15.82;;;4.22;;
29712;SDS011;16623;53.632;10.016;2023-08-17T06:18:22;7.88;;;4.30;;
29712;SDS011;16623;53.632;10.016;2023-08-17T06:20:48;5.97;;;4.82;;
29712;SDS011;16623;53.632;10.016;2023-08-17T06:23:16;8.70;;;4.30;;
29712;SDS011;16623;53.632;10.016;2023-08-17T06:25:42;8.70;;;4.53;;
29712;SDS011;16623;53.632;10.016;2023-08-17T06:28:07;6.80;;;3.75;;
29712;SDS011;16623;53.632;10.016;2023-08-17T06:30:33;10.55;;;4.43;;
29712;SDS011;16623;53.632;10.016;2023-08-17T06:32:58;10.80;;;4.40;;
29712;SDS011;16623;53.632;10.016;2023-08-17T06:35:24;10.65;;;5.32;;
29712;SDS011;16623;53.632;10.016;2023-08-17T06:37:49;8.13;;;4.53;;
29712;SDS011;16623;53.632;10.016;2023-08-17T06:40:16;12.50;;;4.85;;
29712;SDS011;16623;53.632;10.016;2023-08-17T06:42:42;13.65;;;5.07;;
29712;SDS011;16623;53.632;10.016;2023-08-17T06:45:07;11.80;;;5.07;;
29712;SDS011;16623;53.632;10.016;2023-08-17T06:47:33;11.07;;;4.93;;
29712;SDS011;16623;53.632;10.016;2023-08-17T06:49:58;12.20;;;5.38;;
29712;SDS011;16623;53.632;10.016;2023-08-17T06:52:24;12.52;;;5.43;;
29712;SDS011;16623;53.632;10.016;2023-08-17T06:54:50;14.50;;;5.57;;
29712;SDS011;16623;53.632;10.016;2023-08-17T06:57:15;16.30;;;6.22;;
29712;SDS011;16623;53.632;10.016;2023-08-17T06:59:41;17.95;;;5.97;;
29712;SDS011;16623;53.632;10.016;2023-08-17T07:02:07;14.73;;;5.93;;
29712;SDS011;16623;53.632;10.016;2023-08-17T07:04:32;11.18;;;5.60;;
29712;SDS011;16623;53.632;10.016;2023-08-17T07:06:57;14.38;;;6.47;;
29712;SDS011;16623;53.632;10.016;2023-08-17T07:09:23;16.25;;;7.07;;
29712;SDS011;16623;53.632;10.016;2023-08-17T07:11:49;12.75;;;6.28;;
29712;SDS011;16623;53.632;10.016;2023-08-17T07:14:14;13.75;;;5.97;;
29712;SDS011;16623;53.632;10.016;2023-08-17T07:16:40;13.30;;;5.40;;
29712;SDS011;16623;53.632;10.016;2023-08-17T07:19:05;12.55;;;6.18;;
29712;SDS011;16623;53.632;10.016;2023-08-17T07:21:31;11.25;;;6.10;;
29712;SDS011;16623;53.632;10.016;2023-08-17T07:23:56;16.23;;;6.57;;
29712;SDS011;16623;53.632;10.016;2023-08-17T07:26:22;13.63;;;5.95;;
29712;SDS011;16623;53.632;10.016;2023-08-17T07:28:48;14.85;;;6.25;;
29712;SDS011;16623;53.632;10.016;2023-08-17T07:31:14;18.27;;;7.15;;
29712;SDS011;16623;53.632;10.016;2023-08-17T07:33:40;19.17;;;6.22;;
29712;SDS011;16623;53.632;10.016;2023-08-17T07:36:06;14.38;;;6.55;;
29712;SDS011;16623;53.632;10.016;2023-08-17T07:38:32;14.32;;;7.10;;
29712;SDS011;16623;53.632;10.016;2023-08-17T07:40:58;11.32;;;6.07;;
29712;SDS011;16623;53.632;10.016;2023-08-17T07:43:24;18.63;;;7.93;;
29712;SDS011;16623;53.632;10.016;2023-08-17T07:45:53;15.98;;;7.53;;
29712;SDS011;16623;53.632;10.016;2023-08-17T07:48:22;14.63;;;6.72;;
29712;SDS011;16623;53.632;10.016;2023-08-17T07:50:48;12.38;;;6.55;;
29712;SDS011;16623;53.632;10.016;2023-08-17T07:53:15;13.82;;;7.63;;
29712;SDS011;16623;53.632;10.016;2023-08-17T07:55:41;12.95;;;7.72;;
29712;SDS011;16623;53.632;10.016;2023-08-17T07:58:06;13.57;;;7.13;;
29712;SDS011;16623;53.632;10.016;2023-08-17T08:00:32;14.30;;;8.02;;
29712;SDS011;16623;53.632;10.016;2023-08-17T08:02:57;13.77;;;7.18;;
29712;SDS011;16623;53.632;10.016;2023-08-17T08:05:23;13.68;;;7.78;;
29712;SDS011;16623;53.632;10.016;2023-08-17T08:07:48;13.05;;;7.15;;
29712;SDS011;16623;53.632;10.016;2023-08-17T08:10:14;12.90;;;7.28;;
29712;SDS011;16623;53.632;10.016;2023-08-17T08:12:40;16.17;;;7.15;;
29712;SDS011;16623;53.632;10.016;2023-08-17T08:15:05;16.55;;;8.63;;
29712;SDS011;16623;53.632;10.016;2023-08-17T08:17:32;12.82;;;6.68;;
29712;SDS011;16623;53.632;10.016;2023-08-17T08:19:57;16.73;;;6.82;;
29712;SDS011;16623;53.632;10.016;2023-08-17T08:22:23;12.85;;;5.85;;
29712;SDS011;16623;53.632;10.016;2023-08-17T08:24:48;10.52;;;5.35;;
29712;SDS011;16623;53.632;10.016;2023-08-17T08:27:14;11.40;;;5.30;;
29712;SDS011;16623;53.632;10.016;2023-08-17T08:29:40;7.90;;;4.50;;
29712;SDS011;16623;53.632;10.016;2023-08-17T08:32:05;7.32;;;4.15;;
29712;SDS011;16623;53.632;10.016;2023-08-17T08:34:31;7.07;;;4.97;;
29712;SDS011;16623;53.632;10.016;2023-08-17T08:36:56;8.85;;;5.25;;
29712;SDS011;16623;53.632;10.016;2023-08-17T08:39:22;15.00;;;5.22;;
29712;SDS011;16623;53.632;10.016;2023-08-17T08:41:50;12.63;;;5.57;;
29712;SDS011;16623;53.632;10.016;2023-08-17T08:44:16;12.07;;;5.50;;
29712;SDS011;16623;53.632;10.016;2023-08-17T08:46:41;13.65;;;4.80;;
29712;SDS011;16623;53.632;10.016;2023-08-17T08:49:10;10.52;;;4.82;;
29712;SDS011;16623;53.632;10.016;2023-08-17T08:51:37;9.48;;;5.22;;
29712;SDS011;16623;53.632;10.016;2023-08-17T08:54:08;10.80;;;4.97;;
29712;SDS011;16623;53.632;10.016;2023-08-17T08:56:37;7.80;;;4.38;;
29712;SDS011;16623;53.632;10.016;2023-08-17T08:59:05;9.05;;;4.53;;
29712;SDS011;16623;53.632;10.016;2023-08-17T09:01:30;10.02;;;4.72;;
29712;SDS011;16623;53.632;10.016;2023-08-17T09:03:59;7.70;;;4.95;;
29712;SDS011;16623;53.632;10.016;2023-08-17T09:06:26;8.38;;;4.30;;
29712;SDS011;16623;53.632;10.016;2023-08-17T09:08:52;4.75;;;3.35;;
29712;SDS011;16623;53.632;10.016;2023-08-17T09:11:19;8.52;;;3.47;;
29712;SDS011;16623;53.632;10.016;2023-08-17T09:13:45;7.38;;;3.70;;
29712;SDS011;16623;53.632;10.016;2023-08-17T09:16:10;4.50;;;2.95;;
29712;SDS011;16623;53.632;10.016;2023-08-17T09:18:36;4.13;;;2.90;;
29712;SDS011;16623;53.632;10.016;2023-08-17T09:21:01;4.72;;;3.20;;
29712;SDS011;16623;53.632;10.016;2023-08-17T09:23:27;6.32;;;3.17;;
29712;SDS011;16623;53.632;10.016;2023-08-17T09:25:53;15.77;;;2.85;;
29712;SDS011;16623;53.632;10.016;2023-08-17T09:28:24;6.00;;;3.30;;
29712;SDS011;16623;53.632;10.016;2023-08-17T09:31:02;7.13;;;3.05;;
29712;SDS011;16623;53.632;10.016;2023-08-17T09:33:31;6.72;;;3.25;;
29712;SDS011;16623;53.632;10.016;2023-08-17T09:35:57;7.47;;;3.17;;
29712;SDS011;16623;53.632;10.016;2023-08-17T09:38:24;10.88;;;3.58;;
29712;SDS011;16623;53.632;10.016;2023-08-17T09:40:50;6.25;;;3.80;;
29712;SDS011;16623;53.632;10.016;2023-08-17T09:43:16;5.20;;;3.25;;
29712;SDS011;16623;53.632;10.016;2023-08-17T09:45:43;6.63;;;3.75;;
29712;SDS011;16623;53.632;10.016;2023-08-17T09:48:13;7.22;;;3.50;;
29712;SDS011;16623;53.632;10.016;2023-08-17T09:50:40;6.38;;;3.17;;
29712;SDS011;16623;53.632;10.016;2023-08-17T09:53:07;9.25;;;3.92;;
29712;SDS011;16623;53.632;10.016;2023-08-17T09:55:36;6.60;;;4.55;;
29712;SDS011;16623;53.632;10.016;2023-08-17T09:58:04;8.00;;;4.65;;
29712;SDS011;16623;53.632;10.016;2023-08-17T10:00:29;10.68;;;5.07;;
29712;SDS011;16623;53.632;10.016;2023-08-17T10:02:56;6.60;;;4.55;;
29712;SDS011;16623;53.632;10.016;2023-08-17T10:05:25;7.28;;;4.38;;
29712;SDS011;16623;53.632;10.016;2023-08-17T10:07:57;4.10;;;3.10;;
29712;SDS011;16623;53.632;10.016;2023-08-17T10:10:27;8.77;;;4.00;;
29712;SDS011;16623;53.632;10.016;2023-08-17T10:15:41;5.25;;;2.83;;
29712;SDS011;16623;53.632;10.016;2023-08-17T10:18:24;5.50;;;2.40;;
29712;SDS011;16623;53.632;10.016;2023-08-17T10:21:17;4.70;;;2.70;;
29712;SDS011;16623;53.632;10.016;2023-08-17T10:23:46;6.82;;;2.45;;
29712;SDS011;16623;53.632;10.016;2023-08-17T10:26:11;2.60;;;2.40;;
29712;SDS011;16623;53.632;10.016;2023-08-17T10:28:38;4.63;;;2.60;;
29712;SDS011;16623;53.632;10.016;2023-08-17T10:31:05;2.97;;;2.03;;
29712;SDS011;16623;53.632;10.016;2023-08-17T10:33:34;7.38;;;2.45;;
29712;SDS011;16623;53.632;10.016;2023-08-17T10:36:00;3.38;;;2.42;;
29712;SDS011;16623;53.632;10.016;2023-08-17T10:38:27;2.53;;;2.17;;
29712;SDS011;16623;53.632;10.016;2023-08-17T10:44:01;5.72;;;2.15;;
29712;SDS011;16623;53.632;10.016;2023-08-17T10:46:37;3.78;;;2.30;;
29712;SDS011;16623;53.632;10.016;2023-08-17T10:49:04;3.35;;;2.28;;
29712;SDS011;16623;53.632;10.016;2023-08-17T10:51:31;4.03;;;2.47;;
29712;SDS011;16623;53.632;10.016;2023-08-17T10:54:01;2.65;;;2.10;;
29712;SDS011;16623;53.632;10.016;2023-08-17T10:56:32;8.40;;;2.85;;
29712;SDS011;16623;53.632;10.016;2023-08-17T10:59:01;3.08;;;2.67;;
29712;SDS011;16623;53.632;10.016;2023-08-17T11:01:33;3.83;;;2.28;;
29712;SDS011;16623;53.632;10.016;2023-08-17T11:04:17;5.57;;;2.70;;
29712;SDS011;16623;53.632;10.016;2023-08-17T11:06:45;6.03;;;2.58;;
29712;SDS011;16623;53.632;10.016;2023-08-17T11:09:25;8.93;;;3.00;;
29712;SDS011;16623;53.632;10.016;2023-08-17T11:11:52;4.15;;;3.38;;
29712;SDS011;16623;53.632;10.016;2023-08-17T11:14:19;4.78;;;2.92;;
29712;SDS011;16623;53.632;10.016;2023-08-17T11:16:46;8.70;;;3.67;;
29712;SDS011;16623;53.632;10.016;2023-08-17T11:19:17;7.93;;;3.50;;
29712;SDS011;16623;53.632;10.016;2023-08-17T11:21:45;6.85;;;3.58;;
29712;SDS011;16623;53.632;10.016;2023-08-17T11:24:12;5.40;;;3.92;;
29712;SDS011;16623;53.632;10.016;2023-08-17T11:26:37;8.38;;;3.95;;
29712;SDS011;16623;53.632;10.016;2023-08-17T11:29:03;7.28;;;4.30;;
29712;SDS011;16623;53.632;10.016;2023-08-17T11:31:28;6.63;;;3.70;;
29712;SDS011;16623;53.632;10.016;2023-08-17T11:33:57;7.03;;;4.70;;
29712;SDS011;16623;53.632;10.016;2023-08-17T11:36:23;10.27;;;5.88;;
29712;SDS011;16623;53.632;10.016;2023-08-17T11:38:49;8.13;;;4.75;;
29712;SDS011;16623;53.632;10.016;2023-08-17T11:41:14;11.10;;;5.75;;
29712;SDS011;16623;53.632;10.016;2023-08-17T11:43:40;9.30;;;5.47;;
29712;SDS011;16623;53.632;10.016;2023-08-17T11:46:07;8.25;;;4.82;;
29712;SDS011;16623;53.632;10.016;2023-08-17T11:48:33;9.77;;;4.60;;
29712;SDS011;16623;53.632;10.016;2023-08-17T11:50:59;7.57;;;4.57;;
29712;SDS011;16623;53.632;10.016;2023-08-17T11:53:24;10.13;;;5.47;;
29712;SDS011;16623;53.632;10.016;2023-08-17T11:55:57;9.32;;;5.30;;
29712;SDS011;16623;53.632;10.016;2023-08-17T12:01:08;10.15;;;5.22;;
29712;SDS011;16623;53.632;10.016;2023-08-17T12:03:35;14.35;;;5.85;;
29712;SDS011;16623;53.632;10.016;2023-08-17T12:06:01;7.30;;;5.05;;
29712;SDS011;16623;53.632;10.016;2023-08-17T12:08:26;8.57;;;5.38;;
29712;SDS011;16623;53.632;10.016;2023-08-17T12:10:52;7.30;;;5.03;;
29712;SDS011;16623;53.632;10.016;2023-08-17T12:13:17;15.20;;;5.05;;
29712;SDS011;16623;53.632;10.016;2023-08-17T12:15:43;8.27;;;5.13;;
29712;SDS011;16623;53.632;10.016;2023-08-17T12:18:09;5.63;;;4.15;;
29712;SDS011;16623;53.632;10.016;2023-08-17T12:20:34;11.15;;;3.92;;
29712;SDS011;16623;53.632;10.016;2023-08-17T12:23:01;7.45;;;4.38;;
29712;SDS011;16623;53.632;10.016;2023-08-17T12:25:28;8.68;;;4.03;;
29712;SDS011;16623;53.632;10.016;2023-08-17T12:27:57;8.25;;;4.50;;
29712;SDS011;16623;53.632;10.016;2023-08-17T12:30:32;7.30;;;3.92;;
29712;SDS011;16623;53.632;10.016;2023-08-17T12:33:03;8.73;;;3.90;;
29712;SDS011;16623;53.632;10.016;2023-08-17T12:35:29;11.45;;;3.92;;
29712;SDS011;16623;53.632;10.016;2023-08-17T12:37:56;6.03;;;3.80;;
29712;SDS011;16623;53.632;10.016;2023-08-17T12:40:23;5.55;;;3.25;;
29712;SDS011;16623;53.632;10.016;2023-08-17T12:42:48;4.20;;;3.25;;
29712;SDS011;16623;53.632;10.016;2023-08-17T12:45:14;5.30;;;3.35;;
29712;SDS011;16623;53.632;10.016;2023-08-17T12:47:40;5.18;;;3.25;;
29712;SDS011;16623;53.632;10.016;2023-08-17T12:50:06;6.50;;;3.78;;
29712;SDS011;16623;53.632;10.016;2023-08-17T12:52:32;7.68;;;3.17;;
29712;SDS011;16623;53.632;10.016;2023-08-17T12:55:00;4.57;;;3.47;;
29712;SDS011;16623;53.632;10.016;2023-08-17T12:57:25;8.98;;;3.38;;
29712;SDS011;16623;53.632;10.016;2023-08-17T12:59:51;4.93;;;3.65;;
29712;SDS011;16623;53.632;10.016;2023-08-17T13:02:17;6.25;;;3.22;;
29712;SDS011;16623;53.632;10.016;2023-08-17T13:04:43;5.70;;;3.17;;
29712;SDS011;16623;53.632;10.016;2023-08-17T13:07:09;4.57;;;3.25;;
29712;SDS011;16623;53.632;10.016;2023-08-17T13:09:34;7.05;;;3.30;;
29712;SDS011;16623;53.632;10.016;2023-08-17T13:12:00;6.07;;;3.47;;
29712;SDS011;16623;53.632;10.016;2023-08-17T13:14:25;10.30;;;3.72;;
29712;SDS011;16623;53.632;10.016;2023-08-17T13:16:52;6.55;;;3.53;;
29712;SDS011;16623;53.632;10.016;2023-08-17T13:19:18;4.85;;;3.30;;
29712;SDS011;16623;53.632;10.016;2023-08-17T13:21:44;7.80;;;4.50;;
29712;SDS011;16623;53.632;10.016;2023-08-17T13:24:09;9.02;;;3.65;;
29712;SDS011;16623;53.632;10.016;2023-08-17T13:26:35;8.88;;;4.30;;
29712;SDS011;16623;53.632;10.016;2023-08-17T13:29:00;9.68;;;3.88;;
29712;SDS011;16623;53.632;10.016;2023-08-17T13:31:26;5.65;;;4.15;;
29712;SDS011;16623;53.632;10.016;2023-08-17T13:33:52;6.90;;;2.83;;
29712;SDS011;16623;53.632;10.016;2023-08-17T13:36:18;4.35;;;2.33;;
29712;SDS011;16623;53.632;10.016;2023-08-17T13:38:44;3.47;;;1.85;;
29712;SDS011;16623;53.632;10.016;2023-08-17T13:41:10;3.80;;;2.00;;
29712;SDS011;16623;53.632;10.016;2023-08-17T13:43:36;4.22;;;2.45;;
29712;SDS011;16623;53.632;10.016;2023-08-17T13:46:04;1.83;;;1.67;;
29712;SDS011;16623;53.632;10.016;2023-08-17T13:48:30;4.80;;;1.85;;
29712;SDS011;16623;53.632;10.016;2023-08-17T13:50:56;3.80;;;1.50;;
29712;SDS011;16623;53.632;10.016;2023-08-17T13:53:24;3.53;;;1.90;;
29712;SDS011;16623;53.632;10.016;2023-08-17T13:55:49;1.98;;;1.77;;
29712;SDS011;16623;53.632;10.016;2023-08-17T13:58:15;2.35;;;1.88;;
29712;SDS011;16623;53.632;10.016;2023-08-17T14:00:41;6.55;;;2.20;;
29712;SDS011;16623;53.632;10.016;2023-08-17T14:03:07;3.03;;;2.35;;
29712;SDS011;16623;53.632;10.016;2023-08-17T14:05:33;3.05;;;1.83;;
29712;SDS011;16623;53.632;10.016;2023-08-17T14:07:58;2.67;;;1.70;;
29712;SDS011;16623;53.632;10.016;2023-08-17T14:10:24;2.25;;;1.70;;
29712;SDS011;16623;53.632;10.016;2023-08-17T14:12:49;1.75;;;1.40;;
29712;SDS011;16623;53.632;10.016;2023-08-17T14:15:15;3.28;;;1.73;;
29712;SDS011;16623;53.632;10.016;2023-08-17T14:17:40;2.13;;;1.52;;
29712;SDS011;16623;53.632;10.016;2023-08-17T14:20:06;2.70;;;1.50;;
29712;SDS011;16623;53.632;10.016;2023-08-17T14:22:33;2.90;;;1.58;;
29712;SDS011;16623;53.632;10.016;2023-08-17T14:24:59;1.92;;;1.45;;
29712;SDS011;16623;53.632;10.016;2023-08-17T14:27:24;1.77;;;1.27;;
29712;SDS011;16623;53.632;10.016;2023-08-17T14:29:51;9.45;;;1.60;;
29712;SDS011;16623;53.632;10.016;2023-08-17T14:32:16;1.42;;;1.33;;
29712;SDS011;16623;53.632;10.016;2023-08-17T14:34:42;2.53;;;1.50;;
29712;SDS011;16623;53.632;10.016;2023-08-17T14:37:08;2.47;;;2.22;;
29712;SDS011;16623;53.632;10.016;2023-08-17T14:39:33;3.38;;;1.50;;
29712;SDS011;16623;53.632;10.016;2023-08-17T14:41:59;1.77;;;1.38;;